createdAt,value
2023-12-15T00:01:09.924Z,5.00
2023-12-15T00:03:41.917Z,5.00
2023-12-15T00:06:13.934Z,5.00
2023-12-15T00:08:45.776Z,5.00
2023-12-15T00:11:17.594Z,5.00
2023-12-15T00:13:49.395Z,5.00
2023-12-15T00:16:21.188Z,5.00
2023-12-15T00:18:52.965Z,5.00
2023-12-15T00:21:25.454Z,5.00
2023-12-15T00:23:57.316Z,5.00
2023-12-15T00:26:29.164Z,4.90
2023-12-15T00:29:00.964Z,4.80
2023-12-15T00:31:32.833Z,4.80
2023-12-15T00:34:04.731Z,4.80
2023-12-15T00:36:36.566Z,4.70
2023-12-15T00:39:08.414Z,4.60
2023-12-15T00:41:40.260Z,4.60
2023-12-15T00:44:12.342Z,4.50
2023-12-15T00:46:44.113Z,4.50
2023-12-15T00:49:15.901Z,4.50
2023-12-15T00:51:47.662Z,4.50
2023-12-15T00:54:19.420Z,4.50
2023-12-15T00:56:51.290Z,4.40
2023-12-15T00:59:23.088Z,4.30
2023-12-15T01:01:54.957Z,4.30
2023-12-15T01:04:26.874Z,4.20
2023-12-15T01:06:58.662Z,4.10
2023-12-15T01:09:30.414Z,4.10
2023-12-15T01:12:02.183Z,4.00
2023-12-15T01:14:34.020Z,3.90
2023-12-15T01:17:05.820Z,3.90
2023-12-15T01:19:37.626Z,3.80
2023-12-15T01:22:09.529Z,3.80
2023-12-15T01:24:41.318Z,3.80
2023-12-15T01:27:13.198Z,3.80
2023-12-15T01:29:44.993Z,3.70
2023-12-15T01:32:16.821Z,3.70
2023-12-15T01:34:48.588Z,3.70
2023-12-15T01:37:20.379Z,3.80
2023-12-15T01:39:53.136Z,3.70
2023-12-15T01:42:27.296Z,3.80
2023-12-15T01:44:59.164Z,3.70
2023-12-15T01:47:32.749Z,3.70
2023-12-15T01:50:07.887Z,3.60
2023-12-15T01:52:39.772Z,3.50
2023-12-15T01:55:11.550Z,3.50
2023-12-15T01:57:44.663Z,3.40
2023-12-15T02:00:17.122Z,3.40
2023-12-15T02:02:48.900Z,3.40
2023-12-15T02:05:20.795Z,3.40
2023-12-15T02:07:52.721Z,3.30
2023-12-15T02:10:24.517Z,3.40
2023-12-15T02:12:56.339Z,3.30
2023-12-15T02:15:28.093Z,3.30
2023-12-15T02:17:59.939Z,3.30
2023-12-15T02:20:32.457Z,3.30
2023-12-15T02:23:04.349Z,3.20
2023-12-15T02:25:36.248Z,3.10
2023-12-15T02:28:08.054Z,3.10
2023-12-15T02:30:39.876Z,3.10
2023-12-15T02:33:12.909Z,3.10
2023-12-15T02:35:48.953Z,3.10
2023-12-15T02:38:20.826Z,3.10
2023-12-15T02:40:52.681Z,3.10
2023-12-15T02:43:24.442Z,3.00
2023-12-15T02:45:56.202Z,3.00
2023-12-15T02:48:28.061Z,2.90
2023-12-15T02:51:00.274Z,2.80
2023-12-15T02:53:32.092Z,2.90
2023-12-15T02:56:04.318Z,2.90
2023-12-15T02:58:36.258Z,2.90
2023-12-15T03:01:08.112Z,2.90
2023-12-15T03:03:40.033Z,2.90
2023-12-15T03:06:11.955Z,2.90
2023-12-15T03:08:43.733Z,2.90
2023-12-15T03:11:15.576Z,2.90
2023-12-15T03:13:47.371Z,2.90
2023-12-15T03:16:19.312Z,2.80
2023-12-15T03:18:51.583Z,2.80
2023-12-15T03:21:23.418Z,2.80
2023-12-15T03:23:55.183Z,2.80
2023-12-15T03:26:27.367Z,2.80
2023-12-15T03:28:59.208Z,2.80
2023-12-15T03:31:30.974Z,2.80
2023-12-15T03:34:02.787Z,2.80
2023-12-15T03:36:39.798Z,2.80
2023-12-15T03:39:11.573Z,2.80
2023-12-15T03:41:43.370Z,2.80
2023-12-15T03:44:15.181Z,2.80
2023-12-15T03:46:47.018Z,2.80
2023-12-15T03:49:18.868Z,2.80
2023-12-15T03:51:50.638Z,2.70
2023-12-15T03:54:22.405Z,2.70
2023-12-15T03:56:57.643Z,2.70
2023-12-15T03:59:29.434Z,2.70
2023-12-15T04:02:01.219Z,2.70
2023-12-15T04:04:33.740Z,2.70
2023-12-15T04:07:06.201Z,2.70
2023-12-15T04:09:37.982Z,2.70
2023-12-15T04:12:09.777Z,2.70
2023-12-15T04:14:41.553Z,2.70
2023-12-15T04:17:13.365Z,2.80
2023-12-15T04:19:45.288Z,2.70
2023-12-15T04:22:17.152Z,2.70
2023-12-15T04:24:49.426Z,2.70
2023-12-15T04:27:21.301Z,2.80
2023-12-15T04:29:53.156Z,2.80
2023-12-15T04:32:25.153Z,2.70
2023-12-15T04:34:57.051Z,2.70
2023-12-15T04:37:28.826Z,2.80
2023-12-15T04:40:00.613Z,2.80
2023-12-15T04:42:32.383Z,2.80
2023-12-15T04:45:08.156Z,2.80
2023-12-15T04:47:40.359Z,2.80
2023-12-15T04:50:12.485Z,2.90
2023-12-15T04:52:44.250Z,2.80
2023-12-15T04:55:15.999Z,2.80
2023-12-15T04:57:50.015Z,2.80
2023-12-15T05:00:22.048Z,2.80
2023-12-15T05:02:53.947Z,2.80
2023-12-15T05:05:25.937Z,2.80
2023-12-15T05:07:57.764Z,2.80
2023-12-15T05:10:29.680Z,2.80
2023-12-15T05:13:01.766Z,2.80
2023-12-15T05:15:33.873Z,2.80
2023-12-15T05:18:06.399Z,2.80
2023-12-15T05:20:39.331Z,1.30
2023-12-15T05:23:12.310Z,2.70
2023-12-15T05:25:44.239Z,2.70
2023-12-15T05:28:16.016Z,2.60
2023-12-15T05:30:47.811Z,2.70
2023-12-15T05:33:19.786Z,2.70
2023-12-15T05:35:51.693Z,2.70
2023-12-15T05:38:23.547Z,2.70
2023-12-15T05:40:55.371Z,2.70
2023-12-15T05:43:27.195Z,2.70
2023-12-15T05:45:59.701Z,2.70
2023-12-15T05:48:31.621Z,2.70
2023-12-15T05:51:05.637Z,2.60
2023-12-15T05:53:48.123Z,2.60
2023-12-15T05:56:26.807Z,2.60
2023-12-15T05:58:58.738Z,2.60
2023-12-15T06:01:30.634Z,2.60
2023-12-15T06:04:02.432Z,2.50
2023-12-15T06:06:34.263Z,2.50
2023-12-15T06:09:06.063Z,2.50
2023-12-15T06:11:42.527Z,2.50
2023-12-15T06:14:14.844Z,2.50
2023-12-15T06:16:46.739Z,2.50
2023-12-15T06:19:18.671Z,2.50
2023-12-15T06:21:50.547Z,2.50
2023-12-15T06:24:22.288Z,2.40
2023-12-15T06:26:54.037Z,2.40
2023-12-15T06:29:25.819Z,2.40
2023-12-15T06:31:57.596Z,2.30
2023-12-15T06:34:29.497Z,2.30
2023-12-15T06:37:01.293Z,2.30
2023-12-15T06:39:33.112Z,2.30
2023-12-15T06:42:05.128Z,2.30
2023-12-15T06:44:37.696Z,2.20
2023-12-15T06:47:09.507Z,2.30
2023-12-15T06:49:41.381Z,2.20
2023-12-15T06:52:13.224Z,2.20
2023-12-15T06:54:44.980Z,2.20
2023-12-15T06:57:16.724Z,2.20
2023-12-15T06:59:48.563Z,2.20
2023-12-15T07:02:20.432Z,2.20
2023-12-15T07:04:52.233Z,2.30
2023-12-15T07:07:24.442Z,2.30
2023-12-15T07:09:56.324Z,2.30
2023-12-15T07:12:28.250Z,2.30
2023-12-15T07:15:00.531Z,2.30
2023-12-15T07:17:32.424Z,2.40
2023-12-15T07:20:05.373Z,2.40
2023-12-15T07:22:37.164Z,2.40
2023-12-15T07:25:09.068Z,2.40
2023-12-15T07:27:42.211Z,2.40
2023-12-15T07:30:14.092Z,2.40
2023-12-15T07:32:46.163Z,2.50
2023-12-15T07:35:28.710Z,2.50
2023-12-15T07:38:04.056Z,2.50
2023-12-15T07:40:35.905Z,2.50
2023-12-15T07:43:07.663Z,2.60
2023-12-15T07:45:39.614Z,2.60
2023-12-15T07:48:12.136Z,2.60
2023-12-15T07:50:43.976Z,2.70
2023-12-15T07:53:15.817Z,2.70
2023-12-15T07:55:47.672Z,2.80
2023-12-15T07:58:20.579Z,2.80
2023-12-15T08:00:53.206Z,2.90
2023-12-15T08:03:25.135Z,2.90
2023-12-15T08:05:56.990Z,3.00
2023-12-15T08:08:28.811Z,2.90
2023-12-15T08:11:03.101Z,2.90
2023-12-15T08:13:35.624Z,2.90
2023-12-15T08:16:10.856Z,2.90
2023-12-15T08:18:44.878Z,2.90
2023-12-15T08:21:16.840Z,2.90
2023-12-15T08:23:48.620Z,2.90
2023-12-15T08:26:27.313Z,2.90
2023-12-15T08:28:59.201Z,3.00
2023-12-15T08:31:30.976Z,3.10
2023-12-15T08:34:02.898Z,3.10
2023-12-15T08:36:34.713Z,3.10
2023-12-15T08:39:07.231Z,3.20
2023-12-15T08:41:39.353Z,3.20
2023-12-15T08:44:19.540Z,3.10
2023-12-15T08:46:56.700Z,3.20
2023-12-15T08:49:29.105Z,3.20
2023-12-15T08:52:01.636Z,3.20
2023-12-15T08:54:33.478Z,3.30
2023-12-15T08:57:06.133Z,3.30
2023-12-15T08:59:39.444Z,3.40
2023-12-15T09:02:12.378Z,3.40
2023-12-15T09:04:55.402Z,3.50
2023-12-15T09:07:33.592Z,3.50
2023-12-15T09:10:05.944Z,3.50
2023-12-15T09:12:37.851Z,3.50
2023-12-15T09:15:10.099Z,3.60
2023-12-15T09:17:43.626Z,3.60
2023-12-15T09:20:15.633Z,3.70
2023-12-15T09:22:47.848Z,3.70
2023-12-15T09:25:19.652Z,3.70
2023-12-15T09:27:51.458Z,3.70
2023-12-15T09:30:23.214Z,3.70
2023-12-15T09:32:55.235Z,3.80
2023-12-15T09:35:27.110Z,3.90
2023-12-15T09:37:58.927Z,4.00
2023-12-15T09:40:33.554Z,4.00
2023-12-15T09:43:05.945Z,4.10
2023-12-15T09:45:37.778Z,4.20
2023-12-15T09:48:13.764Z,4.20
2023-12-15T09:50:53.099Z,4.10
2023-12-15T09:53:25.919Z,4.20
2023-12-15T09:55:57.750Z,4.30
2023-12-15T09:58:29.540Z,4.30
2023-12-15T10:01:01.414Z,6.40
2023-12-15T10:03:33.582Z,4.40
2023-12-15T10:06:05.661Z,4.40
2023-12-15T10:08:58.364Z,4.40
2023-12-15T10:11:34.691Z,4.50
2023-12-15T10:14:08.688Z,4.50
2023-12-15T10:16:41.370Z,4.50
2023-12-15T10:19:13.253Z,4.60
2023-12-15T10:21:45.065Z,4.60
2023-12-15T10:24:24.928Z,4.70
2023-12-15T10:26:56.655Z,4.60
2023-12-15T10:29:28.569Z,4.60
2023-12-15T10:32:00.437Z,4.60
2023-12-15T10:34:32.288Z,4.60
2023-12-15T10:37:04.410Z,4.70
2023-12-15T10:39:36.308Z,4.80
2023-12-15T10:42:08.854Z,4.80
2023-12-15T10:44:41.097Z,4.80
2023-12-15T10:47:13.350Z,4.80
2023-12-15T10:49:52.891Z,4.70
2023-12-15T10:52:26.260Z,4.70
2023-12-15T10:55:00.665Z,4.70
2023-12-15T10:57:32.430Z,4.70
2023-12-15T11:00:07.133Z,4.70
2023-12-15T11:02:40.809Z,4.70
2023-12-15T11:05:13.037Z,4.70
2023-12-15T11:07:45.472Z,4.80
2023-12-15T11:10:18.006Z,4.80
2023-12-15T11:12:49.804Z,4.80
2023-12-15T11:15:23.644Z,4.70
2023-12-15T11:17:58.034Z,4.80
2023-12-15T11:20:33.321Z,4.80
2023-12-15T11:23:10.963Z,4.80
2023-12-15T11:25:50.088Z,4.80
2023-12-15T11:28:22.303Z,4.80
2023-12-15T11:30:54.652Z,4.80
2023-12-15T11:33:39.537Z,4.80
2023-12-15T11:36:14.862Z,4.80
2023-12-15T11:38:50.386Z,4.90
2023-12-15T11:41:24.232Z,4.90
2023-12-15T11:43:56.377Z,5.00
2023-12-15T11:46:28.114Z,5.10
2023-12-15T11:48:59.903Z,5.10
2023-12-15T11:51:32.214Z,5.10
2023-12-15T11:54:05.157Z,5.10
2023-12-15T11:56:37.166Z,5.20
2023-12-15T11:59:08.977Z,5.10
2023-12-15T12:01:40.760Z,5.20
2023-12-15T12:04:20.003Z,5.10
2023-12-15T12:06:52.553Z,5.20
2023-12-15T12:09:24.322Z,5.20
2023-12-15T12:11:57.679Z,5.20
2023-12-15T12:14:29.611Z,5.20
2023-12-15T12:17:03.212Z,5.20
2023-12-15T12:19:40.349Z,5.20
2023-12-15T12:22:15.864Z,5.20
2023-12-15T12:24:47.667Z,5.20
2023-12-15T12:27:19.611Z,5.10
2023-12-15T12:29:52.475Z,5.10
2023-12-15T12:32:25.381Z,5.20
2023-12-15T12:34:58.451Z,5.20
2023-12-15T12:37:31.410Z,5.20
2023-12-15T12:40:07.448Z,5.10
2023-12-15T12:42:39.417Z,5.20
2023-12-15T12:45:11.346Z,5.20
2023-12-15T12:47:45.537Z,5.20
2023-12-15T12:50:20.701Z,5.20
2023-12-15T12:52:54.630Z,5.20
2023-12-15T12:55:29.186Z,5.30
2023-12-15T12:58:03.223Z,5.30
2023-12-15T13:00:35.117Z,5.30
2023-12-15T13:03:07.335Z,5.30
2023-12-15T13:05:39.413Z,5.30
2023-12-15T13:08:11.242Z,5.30
2023-12-15T13:10:43.166Z,5.30
2023-12-15T13:13:14.964Z,5.30
2023-12-15T13:15:46.815Z,5.30
2023-12-15T13:18:18.982Z,5.40
2023-12-15T13:20:51.285Z,5.40
2023-12-15T13:23:24.169Z,5.40
2023-12-15T13:25:56.113Z,5.30
2023-12-15T13:28:32.257Z,5.40
2023-12-15T13:31:06.005Z,5.30
2023-12-15T13:33:38.655Z,5.30
2023-12-15T13:36:15.795Z,5.30
2023-12-15T13:38:49.577Z,5.30
2023-12-15T13:41:21.683Z,5.30
2023-12-15T13:43:53.445Z,5.30
2023-12-15T13:46:25.181Z,5.20
2023-12-15T13:48:57.266Z,5.20
2023-12-15T13:51:29.304Z,5.30
2023-12-15T13:54:01.144Z,5.30
2023-12-15T13:56:33.898Z,5.30
2023-12-15T13:59:05.886Z,5.30
2023-12-15T14:01:38.436Z,5.30
2023-12-15T14:04:10.326Z,5.30
2023-12-15T14:06:43.013Z,5.30
2023-12-15T14:09:14.888Z,5.30
2023-12-15T14:11:46.775Z,5.20
2023-12-15T14:14:18.895Z,5.20
2023-12-15T14:16:50.806Z,5.20
2023-12-15T14:19:22.989Z,5.20
2023-12-15T14:21:54.796Z,5.20
2023-12-15T14:24:26.644Z,5.30
2023-12-15T14:27:01.358Z,5.20
2023-12-15T14:29:35.268Z,5.20
2023-12-15T14:32:07.546Z,5.20
2023-12-15T14:34:39.328Z,5.20
2023-12-15T14:37:11.186Z,5.30
2023-12-15T14:39:43.313Z,5.30
2023-12-15T14:42:15.832Z,5.20
2023-12-15T14:44:47.712Z,5.20
2023-12-15T14:47:19.735Z,5.20
2023-12-15T14:49:51.747Z,5.20
2023-12-15T14:52:24.752Z,5.20
2023-12-15T14:54:58.472Z,5.10
2023-12-15T14:57:30.261Z,5.10
2023-12-15T15:00:02.028Z,5.10
2023-12-15T15:02:34.286Z,5.10
2023-12-15T15:05:07.637Z,5.10
2023-12-15T15:07:41.020Z,5.20
2023-12-15T15:10:13.202Z,5.20
2023-12-15T15:12:45.936Z,5.20
2023-12-15T15:15:17.927Z,5.20
2023-12-15T15:17:49.911Z,5.20
2023-12-15T15:20:21.991Z,5.20
2023-12-15T15:22:54.593Z,5.20
2023-12-15T15:25:26.469Z,5.20
2023-12-15T15:27:58.229Z,5.20
2023-12-15T15:30:30.467Z,5.20
2023-12-15T15:33:02.329Z,5.10
2023-12-15T15:35:34.135Z,5.10
2023-12-15T15:38:05.912Z,5.10
2023-12-15T15:40:37.722Z,5.20
2023-12-15T15:43:09.560Z,5.20
2023-12-15T15:45:41.597Z,5.20
2023-12-15T15:48:13.558Z,5.20
2023-12-15T15:50:46.535Z,5.20
2023-12-15T15:53:19.466Z,5.10
2023-12-15T15:55:52.311Z,5.10
2023-12-15T15:58:24.488Z,5.10
2023-12-15T16:00:56.499Z,5.10
2023-12-15T16:03:28.425Z,5.10
2023-12-15T16:06:00.463Z,5.10
2023-12-15T16:08:36.484Z,5.10
2023-12-15T16:11:08.371Z,5.10
2023-12-15T16:13:40.165Z,5.20
2023-12-15T16:16:12.011Z,5.10
2023-12-15T16:18:45.639Z,5.10
2023-12-15T16:21:17.495Z,5.10
2023-12-15T16:23:49.254Z,5.10
2023-12-15T16:26:21.185Z,5.10
2023-12-15T16:28:52.915Z,5.10
2023-12-15T16:31:24.770Z,5.10
2023-12-15T16:33:56.850Z,5.10
2023-12-15T16:36:29.024Z,5.10
2023-12-15T16:39:00.910Z,5.20
2023-12-15T16:41:33.061Z,5.20
2023-12-15T16:44:06.559Z,5.20
2023-12-15T16:46:38.383Z,5.10
2023-12-15T16:49:10.482Z,5.10
2023-12-15T16:51:42.428Z,5.10
2023-12-15T16:54:14.217Z,5.10
2023-12-15T16:56:45.967Z,5.10
2023-12-15T16:59:18.039Z,5.10
2023-12-15T17:01:49.873Z,5.10
2023-12-15T17:04:21.759Z,5.10
2023-12-15T17:06:53.803Z,5.20
2023-12-15T17:09:31.369Z,5.20
2023-12-15T17:12:05.987Z,5.10
2023-12-15T17:14:37.764Z,5.20
2023-12-15T17:17:09.856Z,5.10
2023-12-15T17:19:41.695Z,5.10
2023-12-15T17:22:13.608Z,5.10
2023-12-15T17:24:47.569Z,5.10
2023-12-15T17:27:19.369Z,5.10
2023-12-15T17:29:51.165Z,5.10
2023-12-15T17:32:22.936Z,5.10
2023-12-15T17:34:54.766Z,5.10
2023-12-15T17:37:26.565Z,5.10
2023-12-15T17:39:58.347Z,5.20
2023-12-15T17:42:30.180Z,5.10
2023-12-15T17:45:01.983Z,5.10
2023-12-15T17:47:33.903Z,5.10
2023-12-15T17:50:06.180Z,5.00
2023-12-15T17:52:37.969Z,5.00
2023-12-15T17:55:10.038Z,5.00
2023-12-15T17:57:42.105Z,5.00
2023-12-15T18:00:14.345Z,5.00
2023-12-15T18:02:46.142Z,5.00
2023-12-15T18:05:17.868Z,5.00
2023-12-15T18:07:49.636Z,6.60
2023-12-15T18:10:23.020Z,5.00
2023-12-15T18:12:57.848Z,5.00
2023-12-15T18:15:29.646Z,5.00
2023-12-15T18:18:01.478Z,5.10
2023-12-15T18:20:33.354Z,5.00
2023-12-15T18:23:06.412Z,5.00
2023-12-15T18:25:38.182Z,5.00
2023-12-15T18:28:16.609Z,5.00
2023-12-15T18:30:54.559Z,4.90
2023-12-15T18:33:26.697Z,4.90
2023-12-15T18:35:58.451Z,4.90
2023-12-15T18:38:30.213Z,4.90
2023-12-15T18:41:02.035Z,4.90
2023-12-15T18:43:33.776Z,5.00
2023-12-15T18:46:09.608Z,4.90
2023-12-15T18:48:41.911Z,4.90
2023-12-15T18:51:20.859Z,5.00
2023-12-15T18:53:59.494Z,5.00
2023-12-15T18:56:31.311Z,4.90
2023-12-15T18:59:03.082Z,4.90
2023-12-15T19:01:35.433Z,5.00
2023-12-15T19:04:07.443Z,5.00
2023-12-15T19:06:40.167Z,4.90
2023-12-15T19:09:12.115Z,5.00
2023-12-15T19:11:43.934Z,5.00
2023-12-15T19:14:15.755Z,5.00
2023-12-15T19:16:48.726Z,5.00
2023-12-15T19:19:20.624Z,5.00
2023-12-15T19:21:52.554Z,5.00
2023-12-15T19:24:24.320Z,5.00
2023-12-15T19:26:56.087Z,4.90
2023-12-15T19:29:27.851Z,4.90
2023-12-15T19:31:59.600Z,4.90
2023-12-15T19:34:32.550Z,4.90
2023-12-15T19:37:04.575Z,4.90
2023-12-15T19:39:36.790Z,4.90
2023-12-15T19:42:08.563Z,4.90
2023-12-15T19:44:42.935Z,5.00
2023-12-15T19:47:15.496Z,5.00
2023-12-15T19:49:47.390Z,5.00
2023-12-15T19:52:19.217Z,5.00
2023-12-15T19:54:51.427Z,5.00
2023-12-15T19:57:23.614Z,5.00
2023-12-15T19:59:55.899Z,5.00
2023-12-15T20:02:27.829Z,4.90
2023-12-15T20:05:05.755Z,4.90
2023-12-15T20:07:38.368Z,5.00
2023-12-15T20:10:10.925Z,5.00
2023-12-15T20:12:43.366Z,5.00
2023-12-15T20:15:15.899Z,5.00
2023-12-15T20:17:48.086Z,5.00
2023-12-15T20:20:19.858Z,5.00
2023-12-15T20:22:51.632Z,5.00
2023-12-15T20:25:23.473Z,4.90
2023-12-15T20:27:55.367Z,4.90
2023-12-15T20:30:27.118Z,4.80
2023-12-15T20:32:59.067Z,4.80
2023-12-15T20:35:31.278Z,4.80
2023-12-15T20:38:03.726Z,4.80
2023-12-15T20:40:35.466Z,4.80
2023-12-15T20:43:08.626Z,4.80
2023-12-15T20:45:40.590Z,4.80
2023-12-15T20:48:12.391Z,4.80
2023-12-15T20:50:44.476Z,4.80
2023-12-15T20:53:16.251Z,4.80
2023-12-15T20:55:48.071Z,4.80
2023-12-15T20:58:21.138Z,4.80
2023-12-15T21:00:53.114Z,4.80
2023-12-15T21:03:25.100Z,4.80
2023-12-15T21:05:56.945Z,4.80
2023-12-15T21:08:28.738Z,4.80
2023-12-15T21:11:00.548Z,4.80
2023-12-15T21:13:32.285Z,4.80
2023-12-15T21:16:05.207Z,4.80
2023-12-15T21:18:37.341Z,4.80
2023-12-15T21:21:09.291Z,4.80
2023-12-15T21:23:41.026Z,4.80
2023-12-15T21:26:12.768Z,4.80
2023-12-15T21:28:44.535Z,4.70
2023-12-15T21:31:16.499Z,4.70
2023-12-15T21:33:48.602Z,4.70
2023-12-15T21:36:20.388Z,4.70
2023-12-15T21:38:52.166Z,4.70
2023-12-15T21:41:24.178Z,4.70
2023-12-15T21:43:58.695Z,4.70
2023-12-15T21:46:30.518Z,4.70
2023-12-15T21:49:02.843Z,4.70
2023-12-15T21:51:37.198Z,4.70
2023-12-15T21:54:10.401Z,4.70
2023-12-15T21:56:45.725Z,4.70
2023-12-15T21:59:17.584Z,4.60
2023-12-15T22:01:55.369Z,4.60
2023-12-15T22:04:28.172Z,4.60
2023-12-15T22:07:01.677Z,4.60
2023-12-15T22:09:33.602Z,4.60
2023-12-15T22:12:06.571Z,4.60
2023-12-15T22:14:44.989Z,4.60
2023-12-15T22:17:18.415Z,4.50
2023-12-15T22:19:50.345Z,4.60
2023-12-15T22:22:22.164Z,4.50
2023-12-15T22:24:54.000Z,4.50
2023-12-15T22:27:25.760Z,4.50
2023-12-15T22:29:57.914Z,4.50
2023-12-15T22:32:29.677Z,4.50
2023-12-15T22:35:01.528Z,4.50
2023-12-15T22:37:33.308Z,4.50
2023-12-15T22:40:05.816Z,4.50
2023-12-15T22:42:37.641Z,4.50
2023-12-15T22:45:09.885Z,4.50
2023-12-15T22:47:41.990Z,4.40
2023-12-15T22:50:14.600Z,4.40
2023-12-15T22:52:46.388Z,4.40
2023-12-15T22:55:18.188Z,4.40
2023-12-15T22:57:52.969Z,4.40
2023-12-15T23:00:30.536Z,4.40
2023-12-15T23:03:02.412Z,4.40
2023-12-15T23:05:34.686Z,4.40
2023-12-15T23:08:06.435Z,4.40
2023-12-15T23:10:38.190Z,4.40
2023-12-15T23:13:10.039Z,4.40
2023-12-15T23:15:41.861Z,4.40
2023-12-15T23:18:13.898Z,4.40
2023-12-15T23:20:45.710Z,4.40
2023-12-15T23:23:18.726Z,4.40
2023-12-15T23:25:50.579Z,4.40
2023-12-15T23:28:22.887Z,4.40
2023-12-15T23:30:54.850Z,4.40
2023-12-15T23:33:27.003Z,4.40
2023-12-15T23:35:58.767Z,4.40
2023-12-15T23:38:30.572Z,4.50
2023-12-15T23:41:02.319Z,4.40
2023-12-15T23:43:34.646Z,4.50
2023-12-15T23:46:06.751Z,4.40
2023-12-15T23:48:38.709Z,4.40
2023-12-15T23:51:10.546Z,4.40
2023-12-15T23:53:42.294Z,4.40
2023-12-15T23:56:14.681Z,4.30
2023-12-15T23:58:46.473Z,4.30
